createdAt,value
2018-11-29T00:02:05.498Z,27.20
2018-11-29T00:06:13.831Z,27.23
2018-11-29T00:10:20.529Z,26.63
2018-11-29T00:14:28.028Z,25.63
2018-11-29T00:18:37.318Z,27.27
2018-11-29T00:22:44.437Z,31.83
2018-11-29T00:26:50.884Z,20.37
2018-11-29T00:30:58.885Z,23.87
2018-11-29T00:35:05.953Z,28.20
2018-11-29T00:39:12.914Z,26.77
2018-11-29T00:43:19.361Z,27.50
2018-11-29T00:47:26.751Z,26.63
2018-11-29T00:51:33.223Z,21.93
2018-11-29T00:55:40.938Z,22.63
2018-11-29T00:59:47.481Z,18.47
2018-11-29T01:03:55.287Z,20.43
2018-11-29T01:08:01.747Z,24.70
2018-11-29T01:12:08.840Z,25.47
2018-11-29T01:16:17.984Z,21.50
2018-11-29T01:20:24.980Z,21.77
2018-11-29T01:24:31.466Z,29.33
2018-11-29T01:28:38.251Z,17.97
2018-11-29T01:32:45.070Z,21.67
2018-11-29T01:36:52.746Z,23.20
2018-11-29T01:41:01.935Z,20.27
2018-11-29T01:45:09.437Z,20.47
2018-11-29T01:49:15.987Z,17.00
2018-11-29T01:53:23.228Z,21.90
2018-11-29T01:57:29.749Z,13.53
2018-11-29T02:01:36.472Z,17.60
2018-11-29T02:05:43.826Z,22.33
2018-11-29T02:09:52.015Z,24.20
2018-11-29T02:13:58.597Z,25.47
2018-11-29T02:18:06.265Z,23.37
2018-11-29T02:22:12.752Z,14.33
2018-11-29T02:26:20.286Z,19.40
2018-11-29T02:30:26.763Z,26.87
2018-11-29T02:34:33.436Z,16.80
2018-11-29T02:38:40.884Z,13.40
2018-11-29T02:42:48.960Z,17.17
2018-11-29T02:46:55.422Z,14.87
2018-11-29T02:51:03.337Z,19.13
2018-11-29T02:55:10.633Z,14.80
2018-11-29T02:59:18.192Z,17.20
2018-11-29T03:03:24.745Z,17.73
2018-11-29T03:07:31.304Z,11.83
2018-11-29T03:11:38.146Z,10.90
2018-11-29T03:15:45.809Z,18.83
2018-11-29T03:19:52.388Z,11.70
2018-11-29T03:23:59.003Z,12.77
2018-11-29T03:28:05.476Z,17.77
2018-11-29T03:32:14.188Z,16.10
2018-11-29T03:36:20.730Z,17.47
2018-11-29T03:40:27.463Z,18.27
2018-11-29T03:44:33.894Z,14.73
2018-11-29T03:48:41.818Z,10.30
2018-11-29T03:52:51.285Z,17.83
2018-11-29T03:56:59.634Z,12.60
2018-11-29T04:01:06.296Z,20.10
2018-11-29T04:05:13.215Z,15.73
2018-11-29T04:09:19.765Z,13.87
2018-11-29T04:13:27.363Z,14.70
2018-11-29T04:17:40.367Z,16.80
2018-11-29T04:21:41.790Z,14.90
2018-11-29T04:25:48.234Z,9.10
2018-11-29T04:29:55.010Z,16.37
2018-11-29T04:34:01.503Z,13.40
2018-11-29T04:38:09.139Z,12.73
2018-11-29T04:42:15.589Z,13.23
2018-11-29T04:46:42.196Z,10.67
2018-11-29T04:50:49.849Z,13.13
2018-11-29T04:54:56.864Z,17.47
2018-11-29T04:59:03.452Z,12.53
2018-11-29T05:03:10.231Z,17.27
2018-11-29T05:07:16.669Z,25.17
2018-11-29T05:11:26.572Z,17.93
2018-11-29T05:15:33.057Z,13.10
2018-11-29T05:19:39.699Z,19.53
2018-11-29T05:23:46.225Z,13.00
2018-11-29T05:27:56.016Z,13.10
2018-11-29T05:32:01.008Z,13.73
2018-11-29T05:36:10.604Z,23.10
2018-11-29T05:40:17.111Z,8.13
2018-11-29T05:44:24.326Z,16.97
2018-11-29T05:48:30.791Z,16.67
2018-11-29T05:52:37.627Z,19.43
2018-11-29T05:56:44.147Z,18.63
2018-11-29T06:00:52.613Z,23.03
2018-11-29T06:05:02.118Z,20.93
2018-11-29T06:09:11.055Z,18.30
2018-11-29T06:13:17.585Z,22.07
2018-11-29T06:17:24.656Z,8.03
2018-11-29T06:21:31.156Z,15.97
2018-11-29T06:25:38.582Z,13.90
2018-11-29T06:29:45.049Z,16.03
2018-11-29T06:33:53.831Z,22.67
2018-11-29T06:38:00.401Z,26.13
2018-11-29T06:42:07.592Z,21.27
2018-11-29T06:46:14.059Z,21.83
2018-11-29T06:50:21.749Z,16.70
2018-11-29T06:54:28.289Z,25.43
2018-11-29T06:58:35.080Z,19.73
2018-11-29T07:02:41.532Z,24.80
2018-11-29T07:06:49.092Z,28.07
2018-11-29T07:10:56.813Z,21.03
2018-11-29T07:15:06.152Z,23.10
2018-11-29T07:19:15.029Z,25.53
2018-11-29T07:23:20.794Z,32.63
2018-11-29T07:27:27.302Z,23.63
2018-11-29T07:31:34.041Z,25.97
2018-11-29T07:35:40.633Z,35.87
2018-11-29T07:39:48.204Z,31.83
2018-11-29T07:43:55.693Z,20.30
2018-11-29T07:48:05.262Z,34.53
2018-11-29T07:52:12.705Z,32.27
2018-11-29T07:56:19.689Z,34.77
2018-11-29T08:00:27.167Z,26.77
2018-11-29T08:04:33.929Z,24.53
2018-11-29T08:08:51.401Z,28.17
2018-11-29T08:12:58.741Z,25.13
2018-11-29T08:17:06.968Z,33.50
2018-11-29T08:21:14.614Z,35.23
2018-11-29T08:25:21.193Z,37.27
2018-11-29T08:29:29.502Z,24.93
2018-11-29T08:33:35.810Z,21.87
2018-11-29T08:37:43.533Z,30.57
2018-11-29T08:41:50.044Z,22.37
2018-11-29T08:45:57.628Z,25.37
2018-11-29T08:50:04.172Z,28.77
2018-11-29T08:54:12.139Z,26.57
2018-11-29T08:58:18.717Z,32.23
2018-11-29T09:02:25.538Z,24.60
2018-11-29T09:06:32.020Z,21.97
2018-11-29T09:10:38.843Z,25.60
2018-11-29T09:14:46.511Z,25.53
2018-11-29T09:18:53.419Z,20.47
2018-11-29T09:23:00.751Z,25.47
2018-11-29T09:27:08.411Z,30.90
2018-11-29T09:31:18.325Z,21.00
2018-11-29T09:35:26.521Z,21.80
2018-11-29T09:39:33.132Z,20.77
2018-11-29T09:43:39.877Z,21.23
2018-11-29T09:47:47.803Z,20.93
2018-11-29T09:51:56.961Z,23.57
2018-11-29T09:56:03.546Z,21.00
2018-11-29T10:00:28.243Z,30.97
2018-11-29T10:04:32.097Z,20.77
2018-11-29T10:08:40.349Z,20.97
2018-11-29T10:12:46.884Z,14.30
2018-11-29T10:16:53.708Z,22.13
2018-11-29T10:21:01.164Z,28.50
2018-11-29T10:25:10.611Z,19.63
2018-11-29T10:29:17.863Z,27.37
2018-11-29T10:33:24.860Z,31.30
2018-11-29T10:37:32.175Z,24.40
2018-11-29T10:41:40.025Z,19.33
2018-11-29T10:45:47.490Z,16.50
2018-11-29T10:49:58.493Z,20.33
2018-11-29T10:54:07.909Z,29.40
2018-11-29T10:58:13.816Z,17.63
2018-11-29T11:02:30.689Z,23.37
2018-11-29T11:06:39.880Z,21.20
2018-11-29T11:10:46.377Z,17.83
2018-11-29T11:14:55.289Z,27.10
2018-11-29T11:19:02.829Z,25.73
2018-11-29T11:23:09.888Z,15.50
2018-11-29T11:27:17.246Z,22.43
2018-11-29T11:31:31.097Z,18.60
2018-11-29T11:35:38.788Z,27.10
2018-11-29T11:39:49.107Z,22.83
2018-11-29T11:43:55.920Z,22.73
2018-11-29T11:48:03.481Z,26.13
2018-11-29T11:52:11.324Z,30.20
2018-11-29T11:56:18.075Z,22.57
2018-11-29T12:00:29.320Z,17.13
2018-11-29T12:04:36.946Z,22.47
2018-11-29T12:08:46.796Z,24.33
2018-11-29T12:12:51.576Z,26.20
2018-11-29T12:16:58.827Z,19.27
2018-11-29T12:21:06.354Z,17.80
2018-11-29T12:25:17.653Z,23.47
2018-11-29T12:29:25.701Z,31.10
2018-11-29T12:33:33.983Z,27.07
2018-11-29T12:37:39.881Z,37.27
2018-11-29T12:41:46.377Z,31.37
2018-11-29T12:45:54.011Z,29.10
2018-11-29T12:50:00.647Z,34.53
2018-11-29T12:54:10.327Z,32.37
2018-11-29T12:58:17.005Z,26.33
2018-11-29T13:02:24.647Z,35.80
2018-11-29T13:06:32.024Z,23.10
2018-11-29T13:10:39.351Z,25.63
2018-11-29T13:14:48.195Z,30.03
2018-11-29T13:18:54.959Z,21.23
2018-11-29T13:23:02.288Z,28.70
2018-11-29T13:27:12.504Z,23.53
2018-11-29T13:31:20.437Z,25.40
2018-11-29T13:35:36.877Z,23.17
2018-11-29T13:39:43.740Z,28.80
2018-11-29T13:43:51.289Z,26.93
2018-11-29T13:47:57.983Z,38.47
2018-11-29T13:52:04.879Z,33.80
2018-11-29T13:56:11.512Z,31.33
2018-11-29T14:00:28.131Z,32.27
2018-11-29T14:04:35.463Z,38.03
2018-11-29T14:08:42.481Z,39.17
2018-11-29T14:12:53.054Z,35.53
2018-11-29T14:17:02.982Z,47.70
2018-11-29T14:21:09.484Z,33.23
2018-11-29T14:25:17.032Z,31.83
2018-11-29T14:29:24.937Z,46.20
2018-11-29T14:33:31.847Z,30.13
2018-11-29T14:37:42.524Z,36.70
2018-11-29T14:41:50.981Z,35.50
2018-11-29T14:45:58.359Z,46.70
2018-11-29T14:50:06.469Z,48.10
2018-11-29T14:54:13.005Z,34.67
2018-11-29T14:58:20.061Z,40.43
2018-11-29T15:02:26.627Z,65.77
2018-11-29T15:06:37.025Z,44.97
2018-11-29T15:10:45.201Z,42.73
2018-11-29T15:14:51.978Z,45.80
2018-11-29T15:18:58.477Z,46.70
2018-11-29T15:23:07.550Z,39.43
2018-11-29T15:27:18.287Z,31.50
2018-11-29T15:31:24.980Z,35.07
2018-11-29T15:35:33.594Z,36.23
2018-11-29T15:39:42.545Z,44.63
2018-11-29T15:44:41.789Z,47.00
2018-11-29T15:49:07.954Z,72.73
2018-11-29T15:53:14.853Z,75.53
2018-11-29T15:57:22.517Z,37.90
2018-11-29T16:01:29.318Z,40.43
2018-11-29T16:05:36.481Z,38.97
2018-11-29T16:09:44.765Z,30.23
2018-11-29T16:13:54.921Z,30.27
2018-11-29T16:18:03.769Z,35.60
2018-11-29T16:22:09.736Z,28.70
2018-11-29T16:26:16.552Z,36.20
2018-11-29T16:30:45.774Z,33.27
2018-11-29T16:34:52.641Z,26.70
2018-11-29T16:38:59.589Z,62.00
2018-11-29T16:43:08.122Z,76.90
2018-11-29T16:47:16.498Z,59.17
2018-11-29T16:51:23.252Z,64.00
2018-11-29T16:55:30.342Z,46.90
2018-11-29T16:59:37.132Z,34.30
2018-11-29T17:03:47.024Z,36.90
2018-11-29T17:07:54.663Z,23.20
2018-11-29T17:12:04.452Z,32.33
2018-11-29T17:16:11.250Z,28.20
2018-11-29T17:20:19.121Z,25.30
2018-11-29T17:24:25.993Z,22.80
2018-11-29T17:28:32.993Z,27.43
2018-11-29T17:32:39.784Z,33.60
2018-11-29T17:36:47.605Z,36.63
2018-11-29T17:40:57.307Z,21.57
2018-11-29T17:45:04.524Z,39.97
2018-11-29T17:49:13.651Z,37.77
2018-11-29T17:53:22.564Z,28.97
2018-11-29T17:57:29.353Z,21.50
2018-11-29T18:01:36.474Z,24.97
2018-11-29T18:05:44.148Z,35.43
2018-11-29T18:09:54.090Z,40.57
2018-11-29T18:14:00.871Z,48.73
2018-11-29T18:18:07.896Z,44.17
2018-11-29T18:22:14.741Z,41.67
2018-11-29T18:26:24.697Z,43.20
2018-11-29T18:30:30.742Z,36.10
2018-11-29T18:34:38.532Z,32.37
2018-11-29T18:38:45.311Z,51.10
2018-11-29T18:43:02.395Z,42.50
2018-11-29T18:47:09.986Z,42.53
2018-11-29T18:51:18.381Z,56.27
2018-11-29T18:55:26.190Z,66.70
2018-11-29T18:59:34.604Z,43.23
2018-11-29T19:03:41.487Z,33.67
2018-11-29T19:07:48.583Z,41.03
2018-11-29T19:11:58.284Z,39.83
2018-11-29T19:16:06.095Z,31.70
2018-11-29T19:20:16.098Z,22.43
2018-11-29T19:24:23.147Z,35.23
2018-11-29T19:28:31.628Z,33.53
2018-11-29T19:32:39.623Z,40.47
2018-11-29T19:36:47.572Z,29.20
2018-11-29T19:40:55.997Z,20.80
2018-11-29T19:45:02.915Z,31.33
2018-11-29T19:49:10.192Z,26.03
2018-11-29T19:53:26.913Z,32.17
2018-11-29T19:57:35.078Z,31.87
2018-11-29T20:01:41.950Z,42.30
2018-11-29T20:05:50.497Z,38.27
2018-11-29T20:10:00.096Z,32.57
2018-11-29T20:14:07.899Z,21.43
2018-11-29T20:18:15.308Z,17.20
2018-11-29T20:22:23.895Z,32.70
2018-11-29T20:26:30.687Z,33.03
2018-11-29T20:30:38.204Z,28.07
2018-11-29T20:34:50.445Z,25.00
2018-11-29T20:38:58.896Z,21.20
2018-11-29T20:43:05.695Z,24.00
2018-11-29T20:47:13.635Z,23.37
2018-11-29T20:51:20.781Z,38.13
2018-11-29T20:55:32.038Z,29.43
2018-11-29T20:59:38.829Z,22.33
2018-11-29T21:03:47.034Z,19.70
2018-11-29T21:07:55.319Z,18.87
2018-11-29T21:12:03.341Z,23.00
2018-11-29T21:16:10.173Z,23.63
2018-11-29T21:20:22.862Z,34.80
2018-11-29T21:24:32.106Z,20.90
2018-11-29T21:28:41.377Z,17.53
2018-11-29T21:32:48.530Z,22.60
2018-11-29T21:36:59.446Z,22.57
2018-11-29T21:41:07.432Z,34.63
2018-11-29T21:45:15.944Z,17.00
2018-11-29T21:49:22.749Z,25.93
2018-11-29T21:53:29.842Z,30.97
2018-11-29T21:57:36.698Z,23.17
2018-11-29T22:01:44.486Z,20.77
2018-11-29T22:05:51.292Z,27.53
2018-11-29T22:09:59.713Z,27.27
2018-11-29T22:14:09.523Z,27.47
2018-11-29T22:18:21.973Z,25.37
2018-11-29T22:26:36.669Z,24.03
2018-11-29T22:30:44.177Z,30.10
2018-11-29T22:34:51.537Z,25.40
2018-11-29T22:38:58.676Z,23.47
2018-11-29T22:43:05.644Z,29.83
2018-11-29T22:47:13.502Z,20.70
2018-11-29T22:51:21.778Z,15.20
2018-11-29T22:55:28.580Z,28.43
2018-11-29T22:59:35.473Z,31.67
2018-11-29T23:03:42.841Z,25.23
2018-11-29T23:07:51.134Z,23.13
2018-11-29T23:11:57.902Z,21.67
2018-11-29T23:16:05.540Z,21.67
2018-11-29T23:20:15.178Z,23.07
2018-11-29T23:24:23.315Z,19.27
2018-11-29T23:28:30.042Z,20.10
2018-11-29T23:32:37.255Z,22.73
2018-11-29T23:36:44.093Z,19.40
2018-11-29T23:40:52.630Z,20.07
2018-11-29T23:44:59.812Z,19.63
2018-11-29T23:49:07.095Z,22.23
2018-11-29T23:53:15.423Z,15.37
2018-11-29T23:57:23.859Z,32.13
